sensor_id;sensor_type;location;lat;lon;timestamp;P1;durP1;ratioP1;P2;durP2;ratioP2
58731;SDS011;44508;44.626;21.182;2022-10-26T00:01:49;57.63;;;34.80;;
58731;SDS011;44508;44.626;21.182;2022-10-26T00:04:16;69.05;;;40.40;;
58731;SDS011;44508;44.626;21.182;2022-10-26T00:06:42;71.90;;;43.47;;
58731;SDS011;44508;44.626;21.182;2022-10-26T00:09:08;96.35;;;50.65;;
58731;SDS011;44508;44.626;21.182;2022-10-26T00:11:38;82.82;;;49.95;;
58731;SDS011;44508;44.626;21.182;2022-10-26T00:14:04;87.55;;;51.25;;
58731;SDS011;44508;44.626;21.182;2022-10-26T00:16:30;83.47;;;48.75;;
58731;SDS011;44508;44.626;21.182;2022-10-26T00:18:56;78.80;;;48.17;;
58731;SDS011;44508;44.626;21.182;2022-10-26T00:21:25;81.43;;;46.47;;
58731;SDS011;44508;44.626;21.182;2022-10-26T00:23:51;73.60;;;45.20;;
58731;SDS011;44508;44.626;21.182;2022-10-26T00:26:17;72.32;;;44.30;;
58731;SDS011;44508;44.626;21.182;2022-10-26T00:28:43;72.32;;;43.88;;
58731;SDS011;44508;44.626;21.182;2022-10-26T00:31:13;84.50;;;43.58;;
58731;SDS011;44508;44.626;21.182;2022-10-26T00:33:39;80.57;;;43.15;;
58731;SDS011;44508;44.626;21.182;2022-10-26T00:36:06;76.03;;;42.60;;
58731;SDS011;44508;44.626;21.182;2022-10-26T00:38:46;71.60;;;41.80;;
58731;SDS011;44508;44.626;21.182;2022-10-26T00:41:16;70.47;;;42.15;;
58731;SDS011;44508;44.626;21.182;2022-10-26T00:43:43;62.33;;;39.47;;
58731;SDS011;44508;44.626;21.182;2022-10-26T00:46:13;66.93;;;40.78;;
58731;SDS011;44508;44.626;21.182;2022-10-26T00:48:43;68.55;;;38.22;;
58731;SDS011;44508;44.626;21.182;2022-10-26T00:51:29;62.83;;;37.63;;
58731;SDS011;44508;44.626;21.182;2022-10-26T00:53:58;57.45;;;34.75;;
58731;SDS011;44508;44.626;21.182;2022-10-26T00:56:25;56.83;;;35.55;;
58731;SDS011;44508;44.626;21.182;2022-10-26T00:58:52;59.20;;;37.72;;
58731;SDS011;44508;44.626;21.182;2022-10-26T01:01:18;60.60;;;35.67;;
58731;SDS011;44508;44.626;21.182;2022-10-26T01:03:44;50.72;;;32.33;;
58731;SDS011;44508;44.626;21.182;2022-10-26T01:06:11;50.08;;;33.03;;
58731;SDS011;44508;44.626;21.182;2022-10-26T01:08:38;53.60;;;34.40;;
58731;SDS011;44508;44.626;21.182;2022-10-26T01:11:05;52.60;;;33.72;;
58731;SDS011;44508;44.626;21.182;2022-10-26T01:13:31;58.03;;;35.50;;
58731;SDS011;44508;44.626;21.182;2022-10-26T01:18:33;51.45;;;34.53;;
58731;SDS011;44508;44.626;21.182;2022-10-26T01:31:48;47.72;;;32.35;;
58731;SDS011;44508;44.626;21.182;2022-10-26T01:34:22;46.33;;;31.25;;
58731;SDS011;44508;44.626;21.182;2022-10-26T01:36:53;48.85;;;29.42;;
58731;SDS011;44508;44.626;21.182;2022-10-26T01:39:21;42.47;;;29.48;;
58731;SDS011;44508;44.626;21.182;2022-10-26T01:41:54;41.28;;;27.90;;
58731;SDS011;44508;44.626;21.182;2022-10-26T01:44:24;42.92;;;28.77;;
58731;SDS011;44508;44.626;21.182;2022-10-26T01:46:53;43.00;;;28.60;;
58731;SDS011;44508;44.626;21.182;2022-10-26T01:49:21;47.58;;;29.15;;
58731;SDS011;44508;44.626;21.182;2022-10-26T01:51:48;38.33;;;26.70;;
58731;SDS011;44508;44.626;21.182;2022-10-26T01:54:14;37.28;;;25.85;;
58731;SDS011;44508;44.626;21.182;2022-10-26T01:56:41;45.83;;;26.70;;
58731;SDS011;44508;44.626;21.182;2022-10-26T02:11:58;44.42;;;28.83;;
58731;SDS011;44508;44.626;21.182;2022-10-26T02:15:02;45.92;;;28.70;;
58731;SDS011;44508;44.626;21.182;2022-10-26T02:17:33;52.58;;;32.20;;
58731;SDS011;44508;44.626;21.182;2022-10-26T02:20:03;40.28;;;27.85;;
58731;SDS011;44508;44.626;21.182;2022-10-26T02:22:44;44.42;;;28.10;;
58731;SDS011;44508;44.626;21.182;2022-10-26T02:25:13;44.50;;;28.63;;
58731;SDS011;44508;44.626;21.182;2022-10-26T02:27:41;38.72;;;26.60;;
58731;SDS011;44508;44.626;21.182;2022-10-26T02:30:09;41.95;;;27.65;;
58731;SDS011;44508;44.626;21.182;2022-10-26T02:32:39;43.15;;;28.55;;
58731;SDS011;44508;44.626;21.182;2022-10-26T02:35:07;41.95;;;27.08;;
58731;SDS011;44508;44.626;21.182;2022-10-26T02:37:34;43.65;;;28.00;;
58731;SDS011;44508;44.626;21.182;2022-10-26T02:40:05;44.47;;;28.33;;
58731;SDS011;44508;44.626;21.182;2022-10-26T02:42:35;43.33;;;28.42;;
58731;SDS011;44508;44.626;21.182;2022-10-26T02:45:06;41.72;;;28.25;;
58731;SDS011;44508;44.626;21.182;2022-10-26T02:47:34;42.40;;;28.10;;
58731;SDS011;44508;44.626;21.182;2022-10-26T02:50:00;41.00;;;27.63;;
58731;SDS011;44508;44.626;21.182;2022-10-26T02:52:29;45.55;;;28.85;;
58731;SDS011;44508;44.626;21.182;2022-10-26T02:55:45;42.65;;;27.48;;
58731;SDS011;44508;44.626;21.182;2022-10-26T02:57:50;40.50;;;27.98;;
58731;SDS011;44508;44.626;21.182;2022-10-26T03:00:17;46.55;;;29.33;;
58731;SDS011;44508;44.626;21.182;2022-10-26T03:02:44;45.75;;;28.45;;
58731;SDS011;44508;44.626;21.182;2022-10-26T03:05:14;50.65;;;29.58;;
58731;SDS011;44508;44.626;21.182;2022-10-26T03:07:41;43.10;;;28.67;;
58731;SDS011;44508;44.626;21.182;2022-10-26T03:10:10;47.55;;;29.50;;
58731;SDS011;44508;44.626;21.182;2022-10-26T03:12:39;47.97;;;28.85;;
58731;SDS011;44508;44.626;21.182;2022-10-26T03:15:12;46.92;;;28.63;;
58731;SDS011;44508;44.626;21.182;2022-10-26T03:17:39;42.83;;;27.75;;
58731;SDS011;44508;44.626;21.182;2022-10-26T03:20:05;47.53;;;30.02;;
58731;SDS011;44508;44.626;21.182;2022-10-26T03:22:32;44.15;;;28.05;;
58731;SDS011;44508;44.626;21.182;2022-10-26T03:24:58;42.00;;;26.83;;
58731;SDS011;44508;44.626;21.182;2022-10-26T03:27:24;42.53;;;28.45;;
58731;SDS011;44508;44.626;21.182;2022-10-26T03:29:51;49.13;;;30.05;;
58731;SDS011;44508;44.626;21.182;2022-10-26T03:32:17;43.85;;;29.05;;
58731;SDS011;44508;44.626;21.182;2022-10-26T03:34:43;43.58;;;29.02;;
58731;SDS011;44508;44.626;21.182;2022-10-26T03:37:12;44.08;;;29.25;;
58731;SDS011;44508;44.626;21.182;2022-10-26T03:39:38;47.45;;;27.58;;
58731;SDS011;44508;44.626;21.182;2022-10-26T03:42:04;40.67;;;25.98;;
58731;SDS011;44508;44.626;21.182;2022-10-26T03:44:30;42.33;;;26.23;;
58731;SDS011;44508;44.626;21.182;2022-10-26T03:46:59;35.90;;;25.30;;
58731;SDS011;44508;44.626;21.182;2022-10-26T03:49:25;37.58;;;24.42;;
58731;SDS011;44508;44.626;21.182;2022-10-26T03:51:51;36.95;;;24.23;;
58731;SDS011;44508;44.626;21.182;2022-10-26T03:54:17;39.95;;;23.77;;
58731;SDS011;44508;44.626;21.182;2022-10-26T03:56:43;35.40;;;24.88;;
58731;SDS011;44508;44.626;21.182;2022-10-26T03:59:09;40.58;;;24.88;;
58731;SDS011;44508;44.626;21.182;2022-10-26T04:01:35;38.78;;;23.30;;
58731;SDS011;44508;44.626;21.182;2022-10-26T04:04:01;33.42;;;22.27;;
58731;SDS011;44508;44.626;21.182;2022-10-26T04:06:27;33.83;;;22.80;;
58731;SDS011;44508;44.626;21.182;2022-10-26T04:08:54;34.13;;;22.65;;
58731;SDS011;44508;44.626;21.182;2022-10-26T04:11:25;34.15;;;21.63;;
58731;SDS011;44508;44.626;21.182;2022-10-26T04:13:52;38.53;;;22.67;;
58731;SDS011;44508;44.626;21.182;2022-10-26T04:16:23;31.15;;;21.13;;
58731;SDS011;44508;44.626;21.182;2022-10-26T04:18:52;30.52;;;21.35;;
58731;SDS011;44508;44.626;21.182;2022-10-26T04:21:18;28.55;;;20.33;;
58731;SDS011;44508;44.626;21.182;2022-10-26T04:23:44;30.85;;;19.17;;
58731;SDS011;44508;44.626;21.182;2022-10-26T04:26:10;35.28;;;21.08;;
58731;SDS011;44508;44.626;21.182;2022-10-26T04:28:36;34.05;;;20.67;;
58731;SDS011;44508;44.626;21.182;2022-10-26T04:31:02;36.92;;;21.67;;
58731;SDS011;44508;44.626;21.182;2022-10-26T04:33:28;35.50;;;20.65;;
58731;SDS011;44508;44.626;21.182;2022-10-26T04:36:01;28.88;;;20.02;;
58731;SDS011;44508;44.626;21.182;2022-10-26T04:38:30;34.03;;;21.75;;
58731;SDS011;44508;44.626;21.182;2022-10-26T04:40:56;32.83;;;20.90;;
58731;SDS011;44508;44.626;21.182;2022-10-26T04:43:22;40.78;;;22.33;;
58731;SDS011;44508;44.626;21.182;2022-10-26T04:45:55;29.58;;;21.25;;
58731;SDS011;44508;44.626;21.182;2022-10-26T04:48:24;32.28;;;21.73;;
58731;SDS011;44508;44.626;21.182;2022-10-26T04:50:50;29.70;;;21.05;;
58731;SDS011;44508;44.626;21.182;2022-10-26T04:53:17;29.23;;;21.05;;
58731;SDS011;44508;44.626;21.182;2022-10-26T04:55:43;32.90;;;21.55;;
58731;SDS011;44508;44.626;21.182;2022-10-26T04:58:12;37.92;;;22.77;;
58731;SDS011;44508;44.626;21.182;2022-10-26T05:00:38;36.60;;;22.52;;
58731;SDS011;44508;44.626;21.182;2022-10-26T05:03:05;34.42;;;23.00;;
58731;SDS011;44508;44.626;21.182;2022-10-26T05:05:35;40.70;;;23.63;;
58731;SDS011;44508;44.626;21.182;2022-10-26T05:08:02;37.92;;;24.45;;
58731;SDS011;44508;44.626;21.182;2022-10-26T05:10:31;38.90;;;25.27;;
58731;SDS011;44508;44.626;21.182;2022-10-26T05:12:58;43.35;;;24.70;;
58731;SDS011;44508;44.626;21.182;2022-10-26T05:15:25;38.65;;;25.10;;
58731;SDS011;44508;44.626;21.182;2022-10-26T05:17:58;41.03;;;24.65;;
58731;SDS011;44508;44.626;21.182;2022-10-26T05:20:25;37.78;;;23.45;;
58731;SDS011;44508;44.626;21.182;2022-10-26T05:22:58;42.72;;;23.92;;
58731;SDS011;44508;44.626;21.182;2022-10-26T05:25:25;36.60;;;24.67;;
58731;SDS011;44508;44.626;21.182;2022-10-26T05:27:56;42.50;;;26.13;;
58731;SDS011;44508;44.626;21.182;2022-10-26T05:30:22;42.58;;;29.33;;
58731;SDS011;44508;44.626;21.182;2022-10-26T05:32:57;44.03;;;27.85;;
58731;SDS011;44508;44.626;21.182;2022-10-26T05:35:24;44.85;;;28.50;;
58731;SDS011;44508;44.626;21.182;2022-10-26T05:37:51;47.75;;;30.65;;
58731;SDS011;44508;44.626;21.182;2022-10-26T05:40:17;49.20;;;30.92;;
58731;SDS011;44508;44.626;21.182;2022-10-26T05:42:43;46.40;;;30.95;;
58731;SDS011;44508;44.626;21.182;2022-10-26T05:45:09;51.33;;;29.58;;
58731;SDS011;44508;44.626;21.182;2022-10-26T05:47:39;44.80;;;27.58;;
58731;SDS011;44508;44.626;21.182;2022-10-26T05:50:06;44.75;;;27.23;;
58731;SDS011;44508;44.626;21.182;2022-10-26T05:52:41;43.17;;;25.83;;
58731;SDS011;44508;44.626;21.182;2022-10-26T05:55:08;55.75;;;24.85;;
58731;SDS011;44508;44.626;21.182;2022-10-26T05:57:35;40.30;;;24.95;;
58731;SDS011;44508;44.626;21.182;2022-10-26T06:00:02;38.22;;;23.20;;
58731;SDS011;44508;44.626;21.182;2022-10-26T06:02:32;39.63;;;21.63;;
58731;SDS011;44508;44.626;21.182;2022-10-26T06:05:03;32.08;;;22.52;;
58731;SDS011;44508;44.626;21.182;2022-10-26T06:07:30;35.35;;;22.67;;
58731;SDS011;44508;44.626;21.182;2022-10-26T06:09:57;53.03;;;33.55;;
58731;SDS011;44508;44.626;21.182;2022-10-26T06:12:23;46.60;;;32.60;;
58731;SDS011;44508;44.626;21.182;2022-10-26T06:14:50;47.38;;;29.83;;
58731;SDS011;44508;44.626;21.182;2022-10-26T06:20:35;39.83;;;27.48;;
58731;SDS011;44508;44.626;21.182;2022-10-26T06:30:41;51.03;;;28.67;;
58731;SDS011;44508;44.626;21.182;2022-10-26T06:33:11;49.78;;;30.55;;
58731;SDS011;44508;44.626;21.182;2022-10-26T06:38:11;46.70;;;28.42;;
58731;SDS011;44508;44.626;21.182;2022-10-26T06:40:39;52.13;;;28.42;;
58731;SDS011;44508;44.626;21.182;2022-10-26T06:43:31;46.60;;;29.15;;
58731;SDS011;44508;44.626;21.182;2022-10-26T06:48:42;48.50;;;26.75;;
58731;SDS011;44508;44.626;21.182;2022-10-26T06:51:10;50.22;;;25.40;;
58731;SDS011;44508;44.626;21.182;2022-10-26T06:53:40;41.78;;;24.15;;
58731;SDS011;44508;44.626;21.182;2022-10-26T06:56:08;39.88;;;25.50;;
58731;SDS011;44508;44.626;21.182;2022-10-26T06:58:36;40.83;;;25.08;;
58731;SDS011;44508;44.626;21.182;2022-10-26T07:01:02;44.30;;;24.63;;
58731;SDS011;44508;44.626;21.182;2022-10-26T07:03:28;39.70;;;23.70;;
58731;SDS011;44508;44.626;21.182;2022-10-26T07:05:54;35.00;;;23.42;;
58731;SDS011;44508;44.626;21.182;2022-10-26T07:08:20;34.80;;;23.63;;
58731;SDS011;44508;44.626;21.182;2022-10-26T07:10:46;33.03;;;22.98;;
58731;SDS011;44508;44.626;21.182;2022-10-26T07:13:15;34.90;;;22.48;;
58731;SDS011;44508;44.626;21.182;2022-10-26T07:15:41;31.67;;;20.75;;
58731;SDS011;44508;44.626;21.182;2022-10-26T07:18:07;29.17;;;21.75;;
58731;SDS011;44508;44.626;21.182;2022-10-26T07:20:37;34.00;;;22.02;;
58731;SDS011;44508;44.626;21.182;2022-10-26T07:23:04;30.55;;;22.05;;
58731;SDS011;44508;44.626;21.182;2022-10-26T07:25:35;34.38;;;21.90;;
58731;SDS011;44508;44.626;21.182;2022-10-26T07:28:08;40.35;;;22.83;;
58731;SDS011;44508;44.626;21.182;2022-10-26T07:30:35;34.00;;;21.95;;
58731;SDS011;44508;44.626;21.182;2022-10-26T07:33:07;47.85;;;22.70;;
58731;SDS011;44508;44.626;21.182;2022-10-26T07:35:33;39.83;;;23.05;;
58731;SDS011;44508;44.626;21.182;2022-10-26T07:37:59;39.13;;;22.52;;
58731;SDS011;44508;44.626;21.182;2022-10-26T07:40:28;37.90;;;24.83;;
58731;SDS011;44508;44.626;21.182;2022-10-26T07:42:55;48.38;;;24.77;;
58731;SDS011;44508;44.626;21.182;2022-10-26T07:45:24;43.58;;;26.10;;
58731;SDS011;44508;44.626;21.182;2022-10-26T07:47:56;49.97;;;27.77;;
58731;SDS011;44508;44.626;21.182;2022-10-26T07:50:25;50.15;;;29.27;;
58731;SDS011;44508;44.626;21.182;2022-10-26T07:52:51;45.83;;;27.33;;
58731;SDS011;44508;44.626;21.182;2022-10-26T07:55:18;50.95;;;29.25;;
58731;SDS011;44508;44.626;21.182;2022-10-26T07:57:44;49.70;;;30.40;;
58731;SDS011;44508;44.626;21.182;2022-10-26T08:00:10;55.63;;;32.25;;
58731;SDS011;44508;44.626;21.182;2022-10-26T08:02:37;54.38;;;31.95;;
58731;SDS011;44508;44.626;21.182;2022-10-26T08:05:03;57.38;;;31.80;;
58731;SDS011;44508;44.626;21.182;2022-10-26T08:07:29;56.13;;;31.48;;
58731;SDS011;44508;44.626;21.182;2022-10-26T08:09:55;59.33;;;32.78;;
58731;SDS011;44508;44.626;21.182;2022-10-26T08:12:21;57.88;;;34.42;;
58731;SDS011;44508;44.626;21.182;2022-10-26T08:14:47;74.70;;;37.47;;
58731;SDS011;44508;44.626;21.182;2022-10-26T08:17:13;67.65;;;35.35;;
58731;SDS011;44508;44.626;21.182;2022-10-26T08:19:39;72.40;;;36.90;;
58731;SDS011;44508;44.626;21.182;2022-10-26T08:22:05;67.93;;;35.88;;
58731;SDS011;44508;44.626;21.182;2022-10-26T08:24:32;67.43;;;35.20;;
58731;SDS011;44508;44.626;21.182;2022-10-26T08:26:58;68.20;;;36.50;;
58731;SDS011;44508;44.626;21.182;2022-10-26T08:29:24;67.13;;;35.28;;
58731;SDS011;44508;44.626;21.182;2022-10-26T08:31:50;61.30;;;34.08;;
58731;SDS011;44508;44.626;21.182;2022-10-26T08:34:16;60.67;;;34.38;;
58731;SDS011;44508;44.626;21.182;2022-10-26T08:36:42;56.05;;;33.05;;
58731;SDS011;44508;44.626;21.182;2022-10-26T08:39:08;59.13;;;31.73;;
58731;SDS011;44508;44.626;21.182;2022-10-26T08:41:41;55.03;;;30.98;;
58731;SDS011;44508;44.626;21.182;2022-10-26T08:46:47;50.20;;;29.73;;
58731;SDS011;44508;44.626;21.182;2022-10-26T08:49:17;47.70;;;27.33;;
58731;SDS011;44508;44.626;21.182;2022-10-26T08:51:45;46.58;;;28.88;;
58731;SDS011;44508;44.626;21.182;2022-10-26T08:56:51;50.20;;;25.75;;
58731;SDS011;44508;44.626;21.182;2022-10-26T09:01:50;42.33;;;25.85;;
58731;SDS011;44508;44.626;21.182;2022-10-26T09:04:16;35.00;;;23.85;;
58731;SDS011;44508;44.626;21.182;2022-10-26T09:09:14;39.47;;;24.38;;
58731;SDS011;44508;44.626;21.182;2022-10-26T09:21:43;37.20;;;20.25;;
58731;SDS011;44508;44.626;21.182;2022-10-26T09:27:25;38.53;;;22.60;;
58731;SDS011;44508;44.626;21.182;2022-10-26T09:29:35;33.78;;;21.80;;
58731;SDS011;44508;44.626;21.182;2022-10-26T09:32:03;33.67;;;20.50;;
58731;SDS011;44508;44.626;21.182;2022-10-26T09:34:36;32.00;;;20.40;;
58731;SDS011;44508;44.626;21.182;2022-10-26T09:37:10;36.58;;;19.88;;
58731;SDS011;44508;44.626;21.182;2022-10-26T09:39:39;32.75;;;20.80;;
58731;SDS011;44508;44.626;21.182;2022-10-26T09:45:09;30.70;;;18.80;;
58731;SDS011;44508;44.626;21.182;2022-10-26T09:47:37;31.10;;;17.95;;
58731;SDS011;44508;44.626;21.182;2022-10-26T09:50:06;22.63;;;16.40;;
58731;SDS011;44508;44.626;21.182;2022-10-26T09:52:38;31.00;;;17.05;;
58731;SDS011;44508;44.626;21.182;2022-10-26T09:55:04;24.77;;;17.00;;
58731;SDS011;44508;44.626;21.182;2022-10-26T09:57:30;23.48;;;15.68;;
58731;SDS011;44508;44.626;21.182;2022-10-26T09:59:56;24.58;;;15.90;;
58731;SDS011;44508;44.626;21.182;2022-10-26T10:02:36;23.95;;;15.35;;
58731;SDS011;44508;44.626;21.182;2022-10-26T10:05:19;20.77;;;14.93;;
58731;SDS011;44508;44.626;21.182;2022-10-26T10:07:45;22.10;;;13.90;;
58731;SDS011;44508;44.626;21.182;2022-10-26T10:10:19;26.63;;;15.77;;
58731;SDS011;44508;44.626;21.182;2022-10-26T10:12:46;26.58;;;15.38;;
58731;SDS011;44508;44.626;21.182;2022-10-26T10:15:21;22.17;;;13.43;;
58731;SDS011;44508;44.626;21.182;2022-10-26T10:17:48;24.42;;;12.73;;
58731;SDS011;44508;44.626;21.182;2022-10-26T10:20:20;17.85;;;12.52;;
58731;SDS011;44508;44.626;21.182;2022-10-26T10:22:54;20.20;;;12.20;;
58731;SDS011;44508;44.626;21.182;2022-10-26T10:25:53;16.65;;;11.35;;
58731;SDS011;44508;44.626;21.182;2022-10-26T10:28:22;20.50;;;11.18;;
58731;SDS011;44508;44.626;21.182;2022-10-26T10:30:54;17.55;;;11.10;;
58731;SDS011;44508;44.626;21.182;2022-10-26T10:33:30;18.52;;;12.23;;
58731;SDS011;44508;44.626;21.182;2022-10-26T10:35:57;49.40;;;13.93;;
58731;SDS011;44508;44.626;21.182;2022-10-26T10:38:23;22.63;;;12.25;;
58731;SDS011;44508;44.626;21.182;2022-10-26T10:40:50;21.20;;;12.60;;
58731;SDS011;44508;44.626;21.182;2022-10-26T10:43:16;17.38;;;11.65;;
58731;SDS011;44508;44.626;21.182;2022-10-26T10:45:46;16.77;;;11.77;;
58731;SDS011;44508;44.626;21.182;2022-10-26T10:50:49;17.55;;;12.20;;
58731;SDS011;44508;44.626;21.182;2022-10-26T10:53:19;23.40;;;12.23;;
58731;SDS011;44508;44.626;21.182;2022-10-26T10:56:01;21.52;;;12.43;;
58731;SDS011;44508;44.626;21.182;2022-10-26T10:58:37;19.30;;;11.00;;
58731;SDS011;44508;44.626;21.182;2022-10-26T11:01:12;21.00;;;10.85;;
58731;SDS011;44508;44.626;21.182;2022-10-26T11:03:44;18.45;;;11.85;;
58731;SDS011;44508;44.626;21.182;2022-10-26T11:16:03;15.52;;;10.35;;
58731;SDS011;44508;44.626;21.182;2022-10-26T11:18:33;16.40;;;10.30;;
58731;SDS011;44508;44.626;21.182;2022-10-26T11:21:02;16.52;;;11.30;;
58731;SDS011;44508;44.626;21.182;2022-10-26T11:23:31;19.17;;;11.85;;
58731;SDS011;44508;44.626;21.182;2022-10-26T11:31:25;16.70;;;12.55;;
58731;SDS011;44508;44.626;21.182;2022-10-26T11:36:37;20.98;;;11.18;;
58731;SDS011;44508;44.626;21.182;2022-10-26T11:41:53;23.55;;;11.68;;
58731;SDS011;44508;44.626;21.182;2022-10-26T11:44:25;17.27;;;11.55;;
58731;SDS011;44508;44.626;21.182;2022-10-26T11:47:04;19.45;;;11.05;;
58731;SDS011;44508;44.626;21.182;2022-10-26T11:52:00;20.50;;;10.85;;
58731;SDS011;44508;44.626;21.182;2022-10-26T11:56:55;18.15;;;10.32;;
58731;SDS011;44508;44.626;21.182;2022-10-26T11:59:23;16.80;;;9.57;;
58731;SDS011;44508;44.626;21.182;2022-10-26T12:01:50;17.98;;;8.98;;
58731;SDS011;44508;44.626;21.182;2022-10-26T12:04:18;14.55;;;10.20;;
58731;SDS011;44508;44.626;21.182;2022-10-26T12:06:45;21.50;;;10.13;;
58731;SDS011;44508;44.626;21.182;2022-10-26T12:09:16;21.40;;;10.30;;
58731;SDS011;44508;44.626;21.182;2022-10-26T12:11:51;13.43;;;9.30;;
58731;SDS011;44508;44.626;21.182;2022-10-26T12:17:04;17.80;;;9.50;;
58731;SDS011;44508;44.626;21.182;2022-10-26T12:21:59;14.98;;;10.07;;
58731;SDS011;44508;44.626;21.182;2022-10-26T12:24:26;16.02;;;8.88;;
58731;SDS011;44508;44.626;21.182;2022-10-26T12:26:56;14.60;;;9.63;;
58731;SDS011;44508;44.626;21.182;2022-10-26T12:31:49;14.77;;;10.48;;
58731;SDS011;44508;44.626;21.182;2022-10-26T12:34:22;19.38;;;10.27;;
58731;SDS011;44508;44.626;21.182;2022-10-26T12:39:31;15.65;;;10.48;;
58731;SDS011;44508;44.626;21.182;2022-10-26T12:41:58;19.08;;;10.20;;
58731;SDS011;44508;44.626;21.182;2022-10-26T12:57:27;18.70;;;9.65;;
58731;SDS011;44508;44.626;21.182;2022-10-26T13:00:03;21.27;;;9.32;;
58731;SDS011;44508;44.626;21.182;2022-10-26T13:07:40;23.80;;;11.18;;
58731;SDS011;44508;44.626;21.182;2022-10-26T13:12:54;28.65;;;15.30;;
58731;SDS011;44508;44.626;21.182;2022-10-26T13:15:28;46.28;;;19.00;;
58731;SDS011;44508;44.626;21.182;2022-10-26T13:20:20;26.40;;;10.48;;
58731;SDS011;44508;44.626;21.182;2022-10-26T13:22:50;21.42;;;9.02;;
58731;SDS011;44508;44.626;21.182;2022-10-26T13:25:21;20.63;;;8.98;;
58731;SDS011;44508;44.626;21.182;2022-10-26T13:27:56;18.30;;;8.57;;
58731;SDS011;44508;44.626;21.182;2022-10-26T13:32:57;14.70;;;6.70;;
58731;SDS011;44508;44.626;21.182;2022-10-26T13:35:24;19.60;;;8.50;;
58731;SDS011;44508;44.626;21.182;2022-10-26T13:37:52;18.90;;;7.88;;
58731;SDS011;44508;44.626;21.182;2022-10-26T13:40:27;17.13;;;7.65;;
58731;SDS011;44508;44.626;21.182;2022-10-26T13:42:55;15.80;;;7.43;;
58731;SDS011;44508;44.626;21.182;2022-10-26T13:45:24;15.90;;;7.90;;
58731;SDS011;44508;44.626;21.182;2022-10-26T13:50:23;20.17;;;7.22;;
58731;SDS011;44508;44.626;21.182;2022-10-26T13:52:50;14.35;;;6.70;;
58731;SDS011;44508;44.626;21.182;2022-10-26T13:55:21;23.25;;;6.07;;
58731;SDS011;44508;44.626;21.182;2022-10-26T14:00:21;12.02;;;5.15;;
58731;SDS011;44508;44.626;21.182;2022-10-26T14:02:47;13.25;;;5.07;;
58731;SDS011;44508;44.626;21.182;2022-10-26T14:05:17;14.82;;;4.68;;
58731;SDS011;44508;44.626;21.182;2022-10-26T14:07:54;12.88;;;5.90;;
58731;SDS011;44508;44.626;21.182;2022-10-26T14:10:37;15.95;;;8.27;;
58731;SDS011;44508;44.626;21.182;2022-10-26T14:13:07;21.70;;;8.80;;
58731;SDS011;44508;44.626;21.182;2022-10-26T14:15:33;22.13;;;10.13;;
58731;SDS011;44508;44.626;21.182;2022-10-26T14:18:01;25.70;;;11.77;;
58731;SDS011;44508;44.626;21.182;2022-10-26T14:20:28;23.98;;;11.82;;
58731;SDS011;44508;44.626;21.182;2022-10-26T14:22:54;20.88;;;11.35;;
58731;SDS011;44508;44.626;21.182;2022-10-26T14:25:22;29.80;;;11.93;;
58731;SDS011;44508;44.626;21.182;2022-10-26T14:27:49;24.38;;;12.57;;
58731;SDS011;44508;44.626;21.182;2022-10-26T14:32:47;26.38;;;10.45;;
58731;SDS011;44508;44.626;21.182;2022-10-26T14:35:13;21.77;;;10.70;;
58731;SDS011;44508;44.626;21.182;2022-10-26T14:37:43;24.63;;;12.10;;
58731;SDS011;44508;44.626;21.182;2022-10-26T14:40:17;26.23;;;13.68;;
58731;SDS011;44508;44.626;21.182;2022-10-26T14:42:44;32.95;;;14.50;;
58731;SDS011;44508;44.626;21.182;2022-10-26T14:47:52;39.47;;;16.02;;
58731;SDS011;44508;44.626;21.182;2022-10-26T14:50:20;34.58;;;12.25;;
58731;SDS011;44508;44.626;21.182;2022-10-26T14:52:51;25.25;;;12.65;;
58731;SDS011;44508;44.626;21.182;2022-10-26T14:55:18;29.88;;;13.93;;
58731;SDS011;44508;44.626;21.182;2022-10-26T14:57:46;34.47;;;16.08;;
58731;SDS011;44508;44.626;21.182;2022-10-26T15:00:19;43.00;;;17.02;;
58731;SDS011;44508;44.626;21.182;2022-10-26T15:02:49;44.58;;;18.83;;
58731;SDS011;44508;44.626;21.182;2022-10-26T15:07:43;38.53;;;13.35;;
58731;SDS011;44508;44.626;21.182;2022-10-26T15:12:54;28.20;;;13.55;;
58731;SDS011;44508;44.626;21.182;2022-10-26T15:15:20;25.17;;;13.38;;
58731;SDS011;44508;44.626;21.182;2022-10-26T15:17:51;26.70;;;13.32;;
58731;SDS011;44508;44.626;21.182;2022-10-26T15:20:21;28.48;;;15.90;;
58731;SDS011;44508;44.626;21.182;2022-10-26T15:22:54;35.65;;;15.40;;
58731;SDS011;44508;44.626;21.182;2022-10-26T15:25:21;32.80;;;17.45;;
58731;SDS011;44508;44.626;21.182;2022-10-26T15:27:51;36.08;;;19.13;;
58731;SDS011;44508;44.626;21.182;2022-10-26T15:32:49;47.58;;;21.50;;
58731;SDS011;44508;44.626;21.182;2022-10-26T15:37:49;34.17;;;21.40;;
58731;SDS011;44508;44.626;21.182;2022-10-26T15:40:19;45.38;;;22.98;;
58731;SDS011;44508;44.626;21.182;2022-10-26T15:42:46;40.85;;;23.65;;
58731;SDS011;44508;44.626;21.182;2022-10-26T15:47:50;50.05;;;25.90;;
58731;SDS011;44508;44.626;21.182;2022-10-26T15:50:17;38.05;;;21.85;;
58731;SDS011;44508;44.626;21.182;2022-10-26T15:52:43;35.65;;;18.25;;
58731;SDS011;44508;44.626;21.182;2022-10-26T15:55:09;38.15;;;17.75;;
58731;SDS011;44508;44.626;21.182;2022-10-26T15:57:36;36.95;;;19.70;;
58731;SDS011;44508;44.626;21.182;2022-10-26T16:00:03;50.10;;;23.40;;
58731;SDS011;44508;44.626;21.182;2022-10-26T16:02:29;51.75;;;26.40;;
58731;SDS011;44508;44.626;21.182;2022-10-26T16:04:55;47.17;;;25.13;;
58731;SDS011;44508;44.626;21.182;2022-10-26T16:07:25;42.65;;;24.73;;
58731;SDS011;44508;44.626;21.182;2022-10-26T16:09:51;49.40;;;26.50;;
58731;SDS011;44508;44.626;21.182;2022-10-26T16:12:17;53.65;;;26.55;;
58731;SDS011;44508;44.626;21.182;2022-10-26T16:14:43;42.67;;;24.15;;
58731;SDS011;44508;44.626;21.182;2022-10-26T16:17:09;42.15;;;23.65;;
58731;SDS011;44508;44.626;21.182;2022-10-26T16:19:35;47.67;;;23.85;;
58731;SDS011;44508;44.626;21.182;2022-10-26T16:22:01;45.78;;;23.13;;
58731;SDS011;44508;44.626;21.182;2022-10-26T16:24:27;43.45;;;22.83;;
58731;SDS011;44508;44.626;21.182;2022-10-26T16:26:54;43.22;;;22.35;;
58731;SDS011;44508;44.626;21.182;2022-10-26T16:29:20;48.17;;;23.58;;
58731;SDS011;44508;44.626;21.182;2022-10-26T16:31:47;51.72;;;24.00;;
58731;SDS011;44508;44.626;21.182;2022-10-26T16:34:13;49.97;;;25.40;;
58731;SDS011;44508;44.626;21.182;2022-10-26T16:36:39;61.75;;;28.73;;
58731;SDS011;44508;44.626;21.182;2022-10-26T16:39:05;64.68;;;30.55;;
58731;SDS011;44508;44.626;21.182;2022-10-26T16:41:31;61.42;;;31.52;;
58731;SDS011;44508;44.626;21.182;2022-10-26T16:43:58;66.78;;;33.90;;
58731;SDS011;44508;44.626;21.182;2022-10-26T16:46:24;88.28;;;49.35;;
58731;SDS011;44508;44.626;21.182;2022-10-26T16:48:51;96.45;;;59.33;;
58731;SDS011;44508;44.626;21.182;2022-10-26T16:51:21;94.18;;;61.97;;
58731;SDS011;44508;44.626;21.182;2022-10-26T16:53:48;112.78;;;70.15;;